createdAt,value
2024-02-29T00:00:13.249Z,1.10
2024-02-29T00:02:42.561Z,1.20
2024-02-29T00:05:13.748Z,1.05
2024-02-29T00:07:41.802Z,1.40
2024-02-29T00:10:10.359Z,1.23
2024-02-29T00:12:39.888Z,1.30
2024-02-29T00:15:08.569Z,1.20
2024-02-29T00:17:36.464Z,1.17
2024-02-29T00:22:37.788Z,0.90
2024-02-29T00:25:06.189Z,1.30
2024-02-29T00:27:33.998Z,1.20
2024-02-29T00:32:29.188Z,1.15
2024-02-29T00:37:25.724Z,1.35
2024-02-29T00:39:53.375Z,0.90
2024-02-29T00:44:48.381Z,1.13
2024-02-29T00:47:15.935Z,0.88
2024-02-29T00:49:43.559Z,1.20
2024-02-29T00:54:40.079Z,0.90
2024-02-29T00:57:08.054Z,1.15
2024-02-29T00:59:35.679Z,1.10
2024-02-29T01:04:32.382Z,1.00
2024-02-29T01:07:00.023Z,0.80
2024-02-29T01:11:58.169Z,1.38
2024-02-29T01:14:26.992Z,1.20
2024-02-29T01:16:55.317Z,1.10
2024-02-29T01:19:22.957Z,1.23
2024-02-29T01:21:50.598Z,1.25
2024-02-29T01:26:45.531Z,1.30
2024-02-29T01:29:14.564Z,1.42
2024-02-29T01:31:42.160Z,1.15
2024-02-29T01:34:09.785Z,1.33
2024-02-29T01:36:37.432Z,1.20
2024-02-29T01:39:05.389Z,1.25
2024-02-29T01:41:33.034Z,1.20
2024-02-29T01:46:31.220Z,1.15
2024-02-29T01:48:59.615Z,1.30
2024-02-29T01:51:27.692Z,1.10
2024-02-29T01:53:55.338Z,1.20
2024-02-29T01:58:50.929Z,1.35
2024-02-29T02:01:18.686Z,1.10
2024-02-29T02:03:49.039Z,1.00
2024-02-29T02:06:16.738Z,0.80
2024-02-29T02:11:11.946Z,1.02
2024-02-29T02:16:09.187Z,1.30
2024-02-29T02:18:37.217Z,1.10
2024-02-29T02:21:06.435Z,0.98
2024-02-29T02:23:34.135Z,1.08
2024-02-29T02:26:02.004Z,1.00
2024-02-29T02:28:30.511Z,1.08
2024-02-29T02:30:58.158Z,1.25
2024-02-29T02:35:53.172Z,1.17
2024-02-29T02:38:22.589Z,1.23
2024-02-29T02:40:50.190Z,1.38
2024-02-29T02:45:45.164Z,1.10
2024-02-29T02:50:40.410Z,1.30
2024-02-29T02:53:09.055Z,1.10
2024-02-29T02:55:38.051Z,1.23
2024-02-29T02:58:05.839Z,1.50
2024-02-29T03:00:33.705Z,1.08
2024-02-29T03:03:02.853Z,1.45
2024-02-29T03:05:30.850Z,1.15
2024-02-29T03:07:59.026Z,1.20
2024-02-29T03:10:26.834Z,1.10
2024-02-29T03:15:23.234Z,1.23
2024-02-29T03:20:18.662Z,1.30
2024-02-29T03:22:46.970Z,1.02
2024-02-29T03:25:14.739Z,1.20
2024-02-29T03:27:42.600Z,1.20
2024-02-29T03:30:12.125Z,1.30
2024-02-29T03:32:39.800Z,0.90
2024-02-29T03:35:07.997Z,1.05
2024-02-29T03:37:35.608Z,1.20
2024-02-29T03:42:31.047Z,1.27
2024-02-29T03:44:58.935Z,1.23
2024-02-29T03:49:55.306Z,1.40
2024-02-29T03:52:22.892Z,1.05
2024-02-29T03:54:50.461Z,1.17
2024-02-29T03:57:18.157Z,0.90
2024-02-29T03:59:48.336Z,1.30
2024-02-29T04:02:16.286Z,1.05
2024-02-29T04:04:46.116Z,1.20
2024-02-29T04:07:13.745Z,1.23
2024-02-29T04:12:09.192Z,1.38
2024-02-29T04:14:39.944Z,1.15
2024-02-29T04:17:07.810Z,1.30
2024-02-29T04:22:04.475Z,1.27
2024-02-29T04:24:32.077Z,0.98
2024-02-29T04:26:59.716Z,1.10
2024-02-29T04:31:55.040Z,0.88
2024-02-29T04:34:22.783Z,1.08
2024-02-29T04:36:50.504Z,1.50
2024-02-29T04:39:19.842Z,1.25
2024-02-29T04:41:47.471Z,1.25
2024-02-29T04:44:15.127Z,1.23
2024-02-29T04:49:10.321Z,1.23
2024-02-29T04:51:37.936Z,1.20
2024-02-29T04:56:36.565Z,1.60
2024-02-29T04:59:05.712Z,1.10
2024-02-29T05:01:33.379Z,1.40
2024-02-29T05:06:29.128Z,1.00
2024-02-29T05:08:56.851Z,1.05
2024-02-29T05:11:24.584Z,0.77
2024-02-29T05:16:21.921Z,1.00
2024-02-29T05:18:49.647Z,1.10
2024-02-29T05:23:45.040Z,1.00
2024-02-29T05:26:12.670Z,1.65
2024-02-29T05:31:09.350Z,2.70
2024-02-29T05:33:38.932Z,2.65
2024-02-29T05:36:07.433Z,2.88
2024-02-29T05:38:35.098Z,3.10
2024-02-29T05:43:34.661Z,3.30
2024-02-29T05:46:03.776Z,3.05
2024-02-29T05:48:36.347Z,3.17
2024-02-29T05:51:04.809Z,3.08
2024-02-29T05:53:32.469Z,2.92
2024-02-29T05:58:31.855Z,2.60
2024-02-29T06:00:59.838Z,3.13
2024-02-29T06:03:27.535Z,2.88
2024-02-29T06:08:24.270Z,4.05
2024-02-29T06:13:19.384Z,6.10
2024-02-29T06:18:15.391Z,6.57
2024-02-29T06:20:43.648Z,5.43
2024-02-29T06:23:12.614Z,4.70
2024-02-29T06:25:41.333Z,4.70
2024-02-29T06:28:08.963Z,4.35
2024-02-29T06:30:36.680Z,3.60
2024-02-29T06:35:32.282Z,3.45
2024-02-29T06:37:59.984Z,3.50
2024-02-29T06:40:29.121Z,3.13
2024-02-29T06:42:57.300Z,3.08
2024-02-29T06:45:25.122Z,3.28
2024-02-29T06:47:52.832Z,2.72
2024-02-29T06:50:20.791Z,2.85
2024-02-29T06:52:49.160Z,2.75
2024-02-29T06:55:17.878Z,2.75
2024-02-29T06:57:48.646Z,2.72
2024-02-29T07:00:16.866Z,2.78
2024-02-29T07:02:44.496Z,2.55
2024-02-29T07:05:12.337Z,2.58
2024-02-29T07:07:39.886Z,2.88
2024-02-29T07:12:35.946Z,2.70
2024-02-29T07:17:32.858Z,2.42
2024-02-29T07:22:27.884Z,2.35
2024-02-29T07:27:23.285Z,2.35
2024-02-29T07:29:50.878Z,2.30
2024-02-29T07:34:47.402Z,2.60
2024-02-29T07:39:42.531Z,2.85
2024-02-29T07:42:10.529Z,3.78
2024-02-29T07:44:38.219Z,3.83
2024-02-29T07:47:05.854Z,4.10
2024-02-29T07:52:02.482Z,5.22
2024-02-29T07:54:30.197Z,5.53
2024-02-29T07:56:58.976Z,5.82
2024-02-29T07:59:26.795Z,6.10
2024-02-29T08:01:54.613Z,6.05
2024-02-29T08:04:22.928Z,5.50
2024-02-29T08:06:51.949Z,4.53
2024-02-29T08:09:19.678Z,4.57
2024-02-29T08:14:17.506Z,4.75
2024-02-29T08:16:46.553Z,4.85
2024-02-29T08:21:42.097Z,4.13
2024-02-29T08:24:11.296Z,4.53
2024-02-29T08:26:39.266Z,4.90
2024-02-29T08:31:34.459Z,6.10
2024-02-29T08:34:02.210Z,5.03
2024-02-29T08:36:30.671Z,5.88
2024-02-29T08:38:59.635Z,5.50
2024-02-29T08:41:29.307Z,6.43
2024-02-29T08:43:57.073Z,6.43
2024-02-29T08:48:52.425Z,5.90
2024-02-29T08:53:47.707Z,4.93
2024-02-29T08:56:16.181Z,5.38
2024-02-29T08:58:45.278Z,7.18
2024-02-29T09:01:12.954Z,7.70
2024-02-29T09:03:40.621Z,7.80
2024-02-29T09:08:35.745Z,7.15
2024-02-29T09:11:04.853Z,6.90
2024-02-29T09:13:35.750Z,5.88
2024-02-29T09:16:05.898Z,6.53
2024-02-29T09:18:35.154Z,6.43
2024-02-29T09:21:02.786Z,6.07
2024-02-29T09:23:30.429Z,5.22
2024-02-29T09:28:25.798Z,5.10
2024-02-29T09:33:25.992Z,4.43
2024-02-29T09:35:58.703Z,4.80
2024-02-29T09:38:26.590Z,4.50
2024-02-29T09:46:11.444Z,4.10
2024-02-29T09:48:41.478Z,3.88
2024-02-29T09:51:16.186Z,3.75
2024-02-29T09:53:44.172Z,3.95
2024-02-29T09:58:40.343Z,5.15
2024-02-29T10:01:10.896Z,5.18
2024-02-29T10:03:41.290Z,4.07
2024-02-29T10:06:09.373Z,3.83
2024-02-29T10:08:37.232Z,3.72
2024-02-29T10:11:05.349Z,3.78
2024-02-29T10:13:40.214Z,3.97
2024-02-29T10:16:09.474Z,3.65
2024-02-29T10:18:38.564Z,3.58
2024-02-29T10:21:14.592Z,3.58
2024-02-29T10:23:43.501Z,3.38
2024-02-29T10:26:11.228Z,3.15
2024-02-29T10:28:38.889Z,3.53
2024-02-29T10:31:08.679Z,3.67
2024-02-29T10:33:39.678Z,3.40
2024-02-29T10:36:12.785Z,3.58
2024-02-29T10:38:40.554Z,3.25
2024-02-29T10:41:09.811Z,3.65
2024-02-29T10:43:39.009Z,3.42
2024-02-29T10:46:08.233Z,3.88
2024-02-29T10:48:48.071Z,3.20
2024-02-29T10:51:27.460Z,2.83
2024-02-29T10:54:07.302Z,2.70
2024-02-29T10:56:37.241Z,2.70
2024-02-29T10:59:06.522Z,2.58
2024-02-29T11:01:35.755Z,2.60
2024-02-29T11:04:04.641Z,2.67
2024-02-29T11:06:39.110Z,2.67
2024-02-29T11:09:09.770Z,2.60
2024-02-29T11:11:38.406Z,2.47
2024-02-29T11:14:10.470Z,2.55
2024-02-29T11:16:40.439Z,2.58
2024-02-29T11:19:11.314Z,2.30
2024-02-29T11:21:40.434Z,2.70
2024-02-29T11:24:08.942Z,2.65
2024-02-29T11:26:37.593Z,2.50
2024-02-29T11:29:14.852Z,2.65
2024-02-29T11:31:44.312Z,2.50
2024-02-29T11:34:12.791Z,2.40
2024-02-29T11:36:42.119Z,2.50
2024-02-29T11:39:11.007Z,2.95
2024-02-29T11:41:39.374Z,2.55
2024-02-29T11:44:07.205Z,3.00
2024-02-29T11:46:34.838Z,3.05
2024-02-29T11:51:30.447Z,3.60
2024-02-29T11:53:59.801Z,3.70
2024-02-29T11:56:27.520Z,4.07
2024-02-29T11:58:55.937Z,3.67
2024-02-29T12:01:24.803Z,3.92
2024-02-29T12:03:53.211Z,4.43
2024-02-29T12:06:21.391Z,4.35
2024-02-29T12:08:49.707Z,4.80
2024-02-29T12:11:19.121Z,4.43
2024-02-29T12:13:47.342Z,4.88
2024-02-29T12:16:16.886Z,5.13
2024-02-29T12:18:46.533Z,4.38
2024-02-29T12:21:14.527Z,5.20
2024-02-29T12:23:42.105Z,4.43
2024-02-29T12:26:10.552Z,4.85
2024-02-29T12:28:40.389Z,4.57
2024-02-29T12:31:09.758Z,2.53
2024-02-29T12:33:38.385Z,1.90
2024-02-29T12:36:06.692Z,1.42
2024-02-29T12:38:35.261Z,1.50
2024-02-29T12:41:03.758Z,0.90
2024-02-29T12:43:31.478Z,1.45
2024-02-29T12:46:00.738Z,1.25
2024-02-29T12:48:28.337Z,0.88
2024-02-29T12:50:56.112Z,1.20
2024-02-29T12:53:23.905Z,1.10
2024-02-29T12:55:51.978Z,1.20
2024-02-29T12:58:19.680Z,1.60
2024-02-29T13:03:16.815Z,1.60
2024-02-29T13:05:45.498Z,1.52
2024-02-29T13:08:13.077Z,1.40
2024-02-29T13:10:41.121Z,1.60
2024-02-29T13:13:10.697Z,1.65
2024-02-29T13:15:39.033Z,1.38
2024-02-29T13:18:06.830Z,1.40
2024-02-29T13:23:03.283Z,1.70
2024-02-29T13:25:30.979Z,1.30
2024-02-29T13:30:26.485Z,2.00
2024-02-29T13:32:54.050Z,2.78
2024-02-29T13:35:21.812Z,3.17
2024-02-29T13:37:51.021Z,3.45
2024-02-29T13:40:19.458Z,3.53
2024-02-29T13:42:47.849Z,3.95
2024-02-29T13:45:15.907Z,4.53
2024-02-29T13:47:48.633Z,4.35
2024-02-29T13:50:16.778Z,4.85
2024-02-29T13:52:44.585Z,4.55
2024-02-29T13:55:13.872Z,4.32
2024-02-29T13:57:41.748Z,4.78
2024-02-29T14:00:10.441Z,5.57
2024-02-29T14:02:41.777Z,5.00
2024-02-29T14:07:37.450Z,5.65
2024-02-29T14:10:07.860Z,4.95
2024-02-29T14:12:38.836Z,5.07
2024-02-29T14:15:07.620Z,5.07
2024-02-29T14:17:36.958Z,4.68
2024-02-29T14:20:05.618Z,4.55
2024-02-29T14:22:33.445Z,4.07
2024-02-29T14:25:01.073Z,3.10
2024-02-29T14:29:58.119Z,2.78
2024-02-29T14:32:25.890Z,2.45
2024-02-29T14:37:21.021Z,2.63
2024-02-29T14:42:16.147Z,2.30
2024-02-29T15:40:19.289Z,4.47
2024-02-29T15:42:47.168Z,3.90
2024-02-29T15:47:43.764Z,3.70
2024-02-29T15:52:39.048Z,3.30
2024-02-29T15:55:07.774Z,3.22
2024-02-29T15:57:37.516Z,3.30
2024-02-29T16:00:06.700Z,2.83
2024-02-29T16:02:40.302Z,3.00
2024-02-29T16:05:08.447Z,3.10
2024-02-29T16:07:36.184Z,3.08
2024-02-29T16:10:04.620Z,3.17
2024-02-29T16:12:32.731Z,3.20
2024-02-29T16:15:01.894Z,3.05
2024-02-29T16:17:29.653Z,3.00
2024-02-29T16:19:57.423Z,2.97
2024-02-29T16:24:52.563Z,2.92
2024-02-29T16:29:47.708Z,2.92
2024-02-29T16:34:44.182Z,2.78
2024-02-29T16:37:11.773Z,2.97
2024-02-29T16:39:39.612Z,3.03
2024-02-29T16:42:07.940Z,2.65
2024-02-29T16:44:35.593Z,2.70
2024-02-29T16:49:32.329Z,2.90
2024-02-29T16:52:00.080Z,2.55
2024-02-29T16:54:27.841Z,2.50
2024-02-29T16:56:55.739Z,2.53
2024-02-29T16:59:23.386Z,3.25
2024-02-29T17:01:51.042Z,2.60
2024-02-29T17:04:18.748Z,2.70
2024-02-29T17:06:48.127Z,2.58
2024-02-29T17:09:16.206Z,2.75
2024-02-29T17:11:43.863Z,2.20
2024-02-29T17:16:39.176Z,2.97
2024-02-29T17:19:07.230Z,2.33
2024-02-29T17:21:35.547Z,2.58
2024-02-29T17:24:06.122Z,2.47
2024-02-29T17:26:35.039Z,2.90
2024-02-29T17:29:02.649Z,2.90
2024-02-29T17:33:57.703Z,2.75
2024-02-29T17:38:53.092Z,2.58
2024-02-29T17:43:49.556Z,2.90
2024-02-29T17:46:17.427Z,2.53
2024-02-29T17:48:45.386Z,2.47
2024-02-29T17:51:12.977Z,2.60
2024-02-29T17:56:07.995Z,2.42
2024-02-29T17:58:37.700Z,2.67
2024-02-29T18:01:05.576Z,2.55
2024-02-29T18:03:33.283Z,2.60
2024-02-29T18:08:29.157Z,2.83
2024-02-29T18:10:56.767Z,2.72
2024-02-29T18:13:24.425Z,2.53
2024-02-29T18:15:53.711Z,2.47
2024-02-29T18:18:21.449Z,2.90
2024-02-29T18:20:49.525Z,3.00
2024-02-29T18:23:17.241Z,3.33
2024-02-29T18:25:45.180Z,3.40
2024-02-29T18:28:12.959Z,2.97
2024-02-29T18:30:41.442Z,3.50
2024-02-29T18:33:10.573Z,3.72
2024-02-29T18:35:38.913Z,3.65
2024-02-29T18:38:06.664Z,3.70
2024-02-29T18:43:02.019Z,3.30
2024-02-29T18:45:29.681Z,4.28
2024-02-29T18:47:57.719Z,3.92
2024-02-29T18:50:26.731Z,4.65
2024-02-29T18:52:54.581Z,4.05
2024-02-29T18:55:24.149Z,4.70
2024-02-29T18:57:52.277Z,5.03
2024-02-29T19:00:20.463Z,5.47
2024-02-29T19:02:48.173Z,5.35
2024-02-29T19:05:15.891Z,4.78
2024-02-29T19:07:45.103Z,4.68
2024-02-29T19:10:14.470Z,5.13
2024-02-29T19:12:42.488Z,4.93
2024-02-29T19:15:10.939Z,4.63
2024-02-29T19:17:38.872Z,4.60
2024-02-29T19:20:11.715Z,4.72
2024-02-29T19:22:39.790Z,4.97
2024-02-29T19:25:09.598Z,4.60
2024-02-29T19:27:37.404Z,4.38
2024-02-29T19:30:06.985Z,4.40
2024-02-29T19:32:34.685Z,4.22
2024-02-29T19:35:04.184Z,4.40
2024-02-29T19:37:31.983Z,3.95
2024-02-29T19:39:59.787Z,3.80
2024-02-29T19:42:28.817Z,3.80
2024-02-29T19:44:59.293Z,3.42
2024-02-29T19:47:27.171Z,3.65
2024-02-29T19:49:54.865Z,3.78
2024-02-29T19:52:22.489Z,3.35
2024-02-29T19:54:50.187Z,3.60
2024-02-29T19:57:18.055Z,3.45
2024-02-29T19:59:47.142Z,3.42
2024-02-29T20:02:15.106Z,3.33
2024-02-29T20:04:42.791Z,3.72
2024-02-29T20:07:11.088Z,3.20
2024-02-29T20:09:39.744Z,3.17
2024-02-29T20:12:07.854Z,3.50
2024-02-29T20:14:35.463Z,3.17
2024-02-29T20:17:04.849Z,2.97
2024-02-29T20:19:33.561Z,3.08
2024-02-29T20:22:04.256Z,3.10
2024-02-29T20:24:32.089Z,3.05
2024-02-29T20:26:59.770Z,3.15
2024-02-29T20:29:27.428Z,3.20
2024-02-29T20:31:55.092Z,3.30
2024-02-29T20:34:24.205Z,2.80
2024-02-29T20:36:52.166Z,3.47
2024-02-29T20:39:20.462Z,3.15
2024-02-29T20:41:48.146Z,2.78
2024-02-29T20:44:15.954Z,3.05
2024-02-29T20:46:44.081Z,2.83
2024-02-29T20:49:11.747Z,3.33
2024-02-29T20:51:40.885Z,2.70
2024-02-29T20:54:08.531Z,3.03
2024-02-29T20:59:05.197Z,3.22
2024-02-29T21:01:32.916Z,2.55
2024-02-29T21:04:00.743Z,2.78
2024-02-29T21:06:28.629Z,2.92
2024-02-29T21:08:57.682Z,2.95
2024-02-29T21:11:25.395Z,2.97
2024-02-29T21:13:54.464Z,3.35
2024-02-29T21:16:22.126Z,2.72
2024-02-29T21:18:49.822Z,3.28
2024-02-29T21:21:19.842Z,2.75
2024-02-29T21:23:47.980Z,2.55
2024-02-29T21:26:17.152Z,2.90
2024-02-29T21:28:47.552Z,2.55
2024-02-29T21:31:15.870Z,2.25
2024-02-29T21:33:43.568Z,2.70
2024-02-29T21:36:11.545Z,3.10
2024-02-29T21:38:39.179Z,2.92
2024-02-29T21:41:06.798Z,3.08
2024-02-29T21:43:35.923Z,2.90
2024-02-29T21:46:03.705Z,2.72
2024-02-29T21:48:31.394Z,3.00
2024-02-29T21:53:26.664Z,3.08
2024-02-29T21:55:54.336Z,2.85
2024-02-29T22:00:52.540Z,3.10
2024-02-29T22:03:22.958Z,3.35
2024-02-29T22:05:51.271Z,3.13
2024-02-29T22:10:47.845Z,2.78
2024-02-29T22:13:15.667Z,3.17
2024-02-29T22:15:43.499Z,2.75
2024-02-29T22:20:39.968Z,3.25
2024-02-29T22:23:08.157Z,2.83
2024-02-29T22:25:35.773Z,3.10
2024-02-29T22:30:31.084Z,3.00
2024-02-29T22:32:58.681Z,3.50
2024-02-29T22:37:55.127Z,3.15
2024-02-29T22:42:50.474Z,3.05
2024-02-29T22:45:18.169Z,2.97
2024-02-29T22:47:46.187Z,3.38
2024-02-29T22:52:43.001Z,3.25
2024-02-29T22:55:10.825Z,3.20
2024-02-29T22:57:38.409Z,3.20
2024-02-29T23:02:39.459Z,3.50
2024-02-29T23:05:07.506Z,3.15
2024-02-29T23:07:36.541Z,2.97
2024-02-29T23:10:06.561Z,3.35
2024-02-29T23:12:34.346Z,3.30
2024-02-29T23:17:29.520Z,2.97
2024-02-29T23:22:25.301Z,3.40
2024-02-29T23:24:53.153Z,3.17
2024-02-29T23:27:22.392Z,3.58
2024-02-29T23:29:50.546Z,3.22
2024-02-29T23:32:18.325Z,3.13
2024-02-29T23:34:45.991Z,3.40
2024-02-29T23:37:13.666Z,3.47
2024-02-29T23:39:41.432Z,3.10
2024-02-29T23:44:37.963Z,3.40
2024-02-29T23:47:06.276Z,3.30
2024-02-29T23:49:34.073Z,3.63
2024-02-29T23:52:01.842Z,3.85
2024-02-29T23:54:29.840Z,3.72
2024-02-29T23:56:58.442Z,3.58
2024-02-29T23:59:26.067Z,3.88
